createdAt,value
2022-09-03T00:00:40.436Z,20.30
2022-09-03T00:01:40.503Z,20.23
2022-09-03T00:02:40.498Z,20.16
2022-09-03T00:03:40.439Z,20.13
2022-09-03T00:04:40.432Z,20.12
2022-09-03T00:05:40.448Z,20.13
2022-09-03T00:06:42.432Z,20.10
2022-09-03T00:07:40.467Z,20.11
2022-09-03T00:08:40.767Z,20.12
2022-09-03T00:10:40.450Z,20.13
2022-09-03T00:11:40.444Z,20.15
2022-09-03T00:12:40.461Z,20.16
2022-09-03T00:13:40.468Z,20.20
2022-09-03T00:14:40.465Z,20.23
2022-09-03T00:15:40.578Z,20.24
2022-09-03T00:16:40.477Z,20.26
2022-09-03T00:17:40.487Z,20.28
2022-09-03T00:18:40.488Z,20.29
2022-09-03T00:19:40.489Z,20.30
2022-09-03T00:21:40.484Z,20.34
2022-09-03T00:22:40.471Z,20.35
2022-09-03T00:23:40.469Z,20.36
2022-09-03T00:24:40.486Z,20.37
2022-09-03T00:25:40.504Z,20.38
2022-09-03T00:26:40.490Z,20.31
2022-09-03T00:27:40.487Z,20.25
2022-09-03T00:28:40.484Z,20.22
2022-09-03T00:29:40.509Z,20.21
2022-09-03T00:30:40.489Z,20.24
2022-09-03T00:33:40.515Z,20.19
2022-09-03T00:36:40.530Z,20.18
2022-09-03T00:37:40.528Z,20.20
2022-09-03T00:38:40.542Z,20.24
2022-09-03T00:39:40.582Z,20.22
2022-09-03T00:40:40.549Z,20.14
2022-09-03T00:41:40.535Z,20.09
2022-09-03T00:42:40.530Z,20.12
2022-09-03T00:43:42.602Z,20.17
2022-09-03T00:44:40.563Z,20.21
2022-09-03T00:45:40.534Z,20.24
2022-09-03T00:46:40.611Z,20.27
2022-09-03T00:47:40.559Z,20.29
2022-09-03T00:48:40.565Z,20.32
2022-09-03T00:49:40.573Z,20.31
2022-09-03T00:50:40.570Z,20.27
2022-09-03T00:51:40.572Z,20.16
2022-09-03T00:52:40.577Z,19.96
2022-09-03T00:53:40.576Z,19.88
2022-09-03T00:54:40.553Z,19.75
2022-09-03T00:55:40.567Z,19.70
2022-09-03T00:56:40.582Z,19.66
2022-09-03T00:58:40.594Z,19.65
2022-09-03T00:59:40.592Z,19.67
2022-09-03T01:01:40.684Z,19.65
2022-09-03T01:02:40.672Z,19.61
2022-09-03T01:03:40.573Z,19.63
2022-09-03T01:04:40.580Z,19.59
2022-09-03T01:05:40.610Z,19.61
2022-09-03T01:06:40.581Z,19.48
2022-09-03T01:07:40.583Z,19.33
2022-09-03T01:08:40.597Z,19.27
2022-09-03T01:09:40.611Z,19.26
2022-09-03T01:10:40.626Z,19.31
2022-09-03T01:11:40.613Z,19.33
2022-09-03T01:12:40.612Z,19.31
2022-09-03T01:13:40.601Z,19.21
2022-09-03T01:14:40.631Z,19.24
2022-09-03T01:15:40.721Z,19.30
2022-09-03T01:16:40.612Z,19.40
2022-09-03T01:17:40.620Z,19.49
2022-09-03T01:18:40.619Z,19.59
2022-09-03T01:19:40.637Z,19.67
2022-09-03T01:20:42.762Z,19.76
2022-09-03T01:21:40.618Z,19.83
2022-09-03T01:22:40.814Z,19.85
2022-09-03T01:23:40.642Z,19.87
2022-09-03T01:26:40.663Z,19.88
2022-09-03T01:27:40.642Z,19.85
2022-09-03T01:28:40.652Z,19.84
2022-09-03T01:29:40.651Z,19.83
2022-09-03T01:34:40.662Z,19.82
2022-09-03T01:35:40.681Z,19.80
2022-09-03T01:36:40.668Z,19.76
2022-09-03T01:37:40.670Z,19.71
2022-09-03T01:38:40.672Z,19.60
2022-09-03T01:39:40.703Z,19.58
2022-09-03T01:40:40.697Z,19.57
2022-09-03T01:41:40.678Z,19.52
2022-09-03T01:42:40.734Z,19.47
2022-09-03T01:43:43.378Z,19.39
2022-09-03T01:45:45.100Z,19.43
2022-09-03T01:46:40.775Z,19.46
2022-09-03T01:47:40.710Z,19.51
2022-09-03T01:48:40.713Z,19.54
2022-09-03T01:49:40.713Z,19.55
2022-09-03T01:50:40.703Z,19.51
2022-09-03T01:51:40.697Z,19.45
2022-09-03T01:52:40.726Z,19.31
2022-09-03T01:53:40.714Z,19.16
2022-09-03T01:54:40.732Z,19.00
2022-09-03T01:55:40.742Z,18.84
2022-09-03T01:56:40.711Z,18.82
2022-09-03T01:57:43.018Z,18.86
2022-09-03T01:58:40.750Z,18.90
2022-09-03T01:59:40.730Z,18.98
2022-09-03T02:00:40.727Z,19.07
2022-09-03T02:01:40.776Z,19.15
2022-09-03T02:02:40.813Z,19.20
2022-09-03T02:03:41.032Z,19.23
2022-09-03T02:04:40.748Z,19.25
2022-09-03T02:05:40.750Z,19.28
2022-09-03T02:06:40.761Z,19.31
2022-09-03T02:07:40.742Z,19.35
2022-09-03T02:08:40.738Z,19.40
2022-09-03T02:09:40.748Z,19.44
2022-09-03T02:10:40.764Z,19.48
2022-09-03T02:11:40.758Z,19.52
2022-09-03T02:12:40.789Z,19.55
2022-09-03T02:13:40.774Z,19.54
2022-09-03T02:14:40.764Z,19.51
2022-09-03T02:15:40.861Z,19.53
2022-09-03T02:16:40.758Z,19.48
2022-09-03T02:17:40.773Z,19.45
2022-09-03T02:19:40.776Z,19.38
2022-09-03T02:20:40.787Z,19.35
2022-09-03T02:21:40.788Z,19.34
2022-09-03T02:22:40.793Z,19.32
2022-09-03T02:23:40.783Z,19.30
2022-09-03T02:24:40.782Z,19.28
2022-09-03T02:25:40.803Z,19.31
2022-09-03T02:26:40.793Z,19.34
2022-09-03T02:27:40.793Z,19.30
2022-09-03T02:28:40.789Z,19.33
2022-09-03T02:29:40.799Z,19.36
2022-09-03T02:30:40.903Z,19.41
2022-09-03T02:31:40.822Z,19.46
2022-09-03T02:32:40.803Z,19.50
2022-09-03T02:33:40.810Z,19.55
2022-09-03T02:34:43.172Z,19.58
2022-09-03T02:35:40.816Z,19.59
2022-09-03T02:37:40.831Z,19.60
2022-09-03T02:39:40.902Z,19.49
2022-09-03T02:40:40.856Z,19.27
2022-09-03T02:41:40.839Z,19.09
2022-09-03T02:42:40.851Z,18.78
2022-09-03T02:43:40.836Z,18.59
2022-09-03T02:44:40.850Z,18.57
2022-09-03T02:45:40.890Z,18.56
2022-09-03T02:46:40.852Z,18.64
2022-09-03T02:47:40.848Z,18.72
2022-09-03T02:48:40.933Z,18.78
2022-09-03T02:49:40.863Z,18.90
2022-09-03T02:50:40.854Z,19.00
2022-09-03T02:51:40.850Z,19.11
2022-09-03T02:52:40.851Z,19.19
2022-09-03T02:53:40.856Z,19.25
2022-09-03T02:54:40.868Z,19.28
2022-09-03T02:55:40.872Z,19.21
2022-09-03T02:56:40.869Z,19.19
2022-09-03T02:57:40.879Z,19.15
2022-09-03T02:58:40.889Z,19.13
2022-09-03T02:59:40.886Z,19.06
2022-09-03T03:00:40.887Z,18.97
2022-09-03T03:01:41.961Z,18.91
2022-09-03T03:02:40.948Z,18.87
2022-09-03T03:03:40.878Z,18.90
2022-09-03T03:04:40.917Z,18.97
2022-09-03T03:05:40.904Z,19.02
2022-09-03T03:06:40.898Z,19.07
2022-09-03T03:07:40.901Z,19.12
2022-09-03T03:08:40.895Z,18.99
2022-09-03T03:09:40.899Z,18.95
2022-09-03T03:10:40.931Z,18.85
2022-09-03T03:12:40.925Z,18.86
2022-09-03T03:13:40.934Z,18.75
2022-09-03T03:14:40.928Z,18.74
2022-09-03T03:15:40.956Z,18.79
2022-09-03T03:16:41.020Z,18.88
2022-09-03T03:17:40.925Z,18.97
2022-09-03T03:18:40.924Z,19.04
2022-09-03T03:19:40.945Z,19.11
2022-09-03T03:20:40.957Z,19.17
2022-09-03T03:21:40.929Z,19.23
2022-09-03T03:22:40.946Z,19.28
2022-09-03T03:23:40.941Z,19.32
2022-09-03T03:24:40.945Z,19.37
2022-09-03T03:25:40.954Z,19.40
2022-09-03T03:26:40.968Z,19.43
2022-09-03T03:27:40.948Z,19.45
2022-09-03T03:28:40.974Z,19.47
2022-09-03T03:29:40.959Z,19.49
2022-09-03T03:30:41.014Z,19.51
2022-09-03T03:31:40.963Z,19.52
2022-09-03T03:32:40.972Z,19.54
2022-09-03T03:33:40.962Z,19.55
2022-09-03T03:36:40.980Z,19.54
2022-09-03T03:37:40.995Z,19.56
2022-09-03T03:38:40.997Z,19.58
2022-09-03T03:40:40.989Z,19.59
2022-09-03T03:41:40.997Z,19.60
2022-09-03T03:44:40.999Z,19.61
2022-09-03T03:46:41.016Z,19.60
2022-09-03T03:49:41.000Z,19.61
2022-09-03T03:50:41.009Z,19.62
2022-09-03T03:51:41.001Z,19.63
2022-09-03T03:52:41.023Z,19.64
2022-09-03T03:54:41.013Z,19.66
2022-09-03T03:56:41.035Z,19.67
2022-09-03T03:57:41.031Z,19.66
2022-09-03T03:58:41.036Z,19.64
2022-09-03T04:00:41.061Z,19.61
2022-09-03T04:01:41.071Z,19.60
2022-09-03T04:02:41.047Z,19.58
2022-09-03T04:04:41.072Z,19.59
2022-09-03T04:05:46.149Z,19.61
2022-09-03T04:06:41.070Z,19.62
2022-09-03T04:07:41.057Z,19.64
2022-09-03T04:08:41.060Z,19.65
2022-09-03T04:09:41.061Z,19.67
2022-09-03T04:10:41.081Z,19.63
2022-09-03T04:11:41.066Z,19.45
2022-09-03T04:12:41.058Z,19.40
2022-09-03T04:13:41.087Z,19.37
2022-09-03T04:14:41.092Z,19.39
2022-09-03T04:15:41.085Z,19.40
2022-09-03T04:16:41.104Z,19.42
2022-09-03T04:17:41.082Z,19.46
2022-09-03T04:18:41.080Z,19.49
2022-09-03T04:19:41.080Z,19.51
2022-09-03T04:20:41.085Z,19.35
2022-09-03T04:21:41.083Z,19.31
2022-09-03T04:22:41.086Z,19.32
2022-09-03T04:23:41.102Z,19.34
2022-09-03T04:24:41.132Z,19.37
2022-09-03T04:25:43.738Z,19.25
2022-09-03T04:26:41.104Z,19.21
2022-09-03T04:27:41.125Z,19.23
2022-09-03T04:28:41.140Z,19.26
2022-09-03T04:29:41.109Z,19.30
2022-09-03T04:30:41.259Z,19.33
2022-09-03T04:31:41.105Z,19.32
2022-09-03T04:32:41.116Z,19.22
2022-09-03T04:33:41.142Z,19.14
2022-09-03T04:34:41.121Z,19.13
2022-09-03T04:35:41.119Z,19.15
2022-09-03T04:36:41.126Z,19.17
2022-09-03T04:37:41.122Z,19.19
2022-09-03T04:38:41.138Z,19.20
2022-09-03T04:39:41.225Z,19.23
2022-09-03T04:40:41.151Z,19.27
2022-09-03T04:41:41.134Z,19.32
2022-09-03T04:42:41.156Z,19.34
2022-09-03T04:43:41.140Z,19.38
2022-09-03T04:44:41.242Z,19.40
2022-09-03T04:45:41.198Z,19.41
2022-09-03T04:47:41.145Z,19.42
2022-09-03T04:48:41.154Z,19.43
2022-09-03T04:49:41.195Z,19.45
2022-09-03T04:50:41.188Z,19.48
2022-09-03T04:51:41.170Z,19.51
2022-09-03T04:52:41.170Z,19.53
2022-09-03T04:53:41.175Z,19.54
2022-09-03T04:55:41.184Z,19.55
2022-09-03T04:57:41.182Z,19.56
2022-09-03T04:58:41.203Z,19.58
2022-09-03T04:59:41.200Z,19.57
2022-09-03T05:00:41.273Z,19.53
2022-09-03T05:01:41.197Z,19.51
2022-09-03T05:03:41.197Z,19.53
2022-09-03T05:04:41.215Z,19.56
2022-09-03T05:05:41.202Z,19.35
2022-09-03T05:06:41.218Z,19.07
2022-09-03T05:07:41.211Z,18.93
2022-09-03T05:08:41.219Z,18.91
2022-09-03T05:09:41.219Z,18.94
2022-09-03T05:10:41.233Z,18.93
2022-09-03T05:11:41.237Z,18.94
2022-09-03T05:12:41.230Z,18.98
2022-09-03T05:13:41.232Z,19.03
2022-09-03T05:14:41.241Z,19.07
2022-09-03T05:15:41.234Z,19.13
2022-09-03T05:16:41.267Z,19.15
2022-09-03T05:17:41.232Z,19.03
2022-09-03T05:18:41.231Z,18.91
2022-09-03T05:19:41.241Z,18.84
2022-09-03T05:20:41.247Z,18.82
2022-09-03T05:21:41.258Z,18.86
2022-09-03T05:22:41.276Z,18.91
2022-09-03T05:23:41.248Z,18.90
2022-09-03T05:24:41.278Z,18.93
2022-09-03T05:25:41.249Z,18.87
2022-09-03T05:26:41.262Z,18.92
2022-09-03T05:27:41.272Z,18.99
2022-09-03T05:28:41.260Z,19.05
2022-09-03T05:29:41.252Z,18.97
2022-09-03T05:30:41.280Z,18.79
2022-09-03T05:31:41.302Z,18.66
2022-09-03T05:32:41.278Z,18.65
2022-09-03T05:33:41.275Z,18.73
2022-09-03T05:34:41.288Z,18.82
2022-09-03T05:35:41.289Z,18.91
2022-09-03T05:36:41.287Z,18.97
2022-09-03T05:37:41.279Z,19.02
2022-09-03T05:38:41.304Z,19.01
2022-09-03T05:39:44.098Z,18.85
2022-09-03T05:40:41.288Z,18.82
2022-09-03T05:41:41.289Z,18.81
2022-09-03T05:42:41.318Z,18.87
2022-09-03T05:43:41.301Z,18.95
2022-09-03T05:44:41.293Z,18.98
2022-09-03T05:45:41.364Z,19.01
2022-09-03T05:46:41.299Z,19.07
2022-09-03T05:47:41.324Z,19.02
2022-09-03T05:48:41.314Z,18.93
2022-09-03T05:49:41.323Z,18.83
2022-09-03T05:51:41.315Z,18.77
2022-09-03T05:52:41.316Z,18.67
2022-09-03T05:53:41.327Z,18.68
2022-09-03T05:54:41.333Z,18.71
2022-09-03T05:55:41.325Z,18.77
2022-09-03T05:56:41.342Z,18.82
2022-09-03T05:57:41.359Z,18.87
2022-09-03T05:58:41.345Z,18.91
2022-09-03T06:00:41.337Z,18.93
2022-09-03T06:01:41.430Z,18.94
2022-09-03T06:02:41.478Z,18.96
2022-09-03T06:03:41.511Z,18.98
2022-09-03T06:04:41.360Z,18.97
2022-09-03T06:05:41.383Z,18.91
2022-09-03T06:06:41.356Z,18.60
2022-09-03T06:07:41.376Z,18.50
2022-09-03T06:08:41.383Z,18.51
2022-09-03T06:09:41.373Z,18.55
2022-09-03T06:10:41.413Z,18.62
2022-09-03T06:11:41.380Z,18.67
2022-09-03T06:12:41.380Z,18.74
2022-09-03T06:13:41.379Z,18.79
2022-09-03T06:14:41.372Z,18.84
2022-09-03T06:15:41.385Z,18.88
2022-09-03T06:16:44.279Z,18.92
2022-09-03T06:18:41.382Z,18.93
2022-09-03T06:19:41.402Z,18.95
2022-09-03T06:20:41.404Z,18.90
2022-09-03T06:21:41.387Z,18.83
2022-09-03T06:22:41.418Z,18.59
2022-09-03T06:23:45.829Z,18.37
2022-09-03T06:24:41.405Z,18.17
2022-09-03T06:25:41.421Z,18.01
2022-09-03T06:26:42.956Z,17.67
2022-09-03T06:27:41.424Z,17.54
2022-09-03T06:28:41.438Z,17.62
2022-09-03T06:29:41.443Z,17.68
2022-09-03T06:30:41.454Z,17.77
2022-09-03T06:31:41.497Z,17.78
2022-09-03T06:32:41.445Z,17.86
2022-09-03T06:33:41.439Z,17.95
2022-09-03T06:34:41.424Z,18.05
2022-09-03T06:35:42.788Z,18.16
2022-09-03T06:36:41.493Z,18.18
2022-09-03T06:37:41.446Z,18.22
2022-09-03T06:38:41.448Z,18.30
2022-09-03T06:39:41.501Z,18.43
2022-09-03T06:40:41.477Z,18.57
2022-09-03T06:41:41.454Z,18.70
2022-09-03T06:42:41.466Z,18.88
2022-09-03T06:43:41.519Z,19.07
2022-09-03T06:44:41.457Z,19.22
2022-09-03T06:45:41.483Z,19.41
2022-09-03T06:46:41.464Z,19.59
2022-09-03T06:47:41.470Z,19.79
2022-09-03T06:48:41.464Z,19.96
2022-09-03T06:49:41.478Z,20.15
2022-09-03T06:50:41.470Z,20.35
2022-09-03T06:51:41.488Z,20.54
2022-09-03T06:52:41.473Z,20.69
2022-09-03T06:53:44.441Z,20.79
2022-09-03T06:54:41.504Z,20.83
2022-09-03T06:55:41.510Z,20.82
2022-09-03T06:56:41.660Z,20.87
2022-09-03T06:57:41.489Z,20.91
2022-09-03T06:58:41.489Z,20.85
2022-09-03T06:59:41.506Z,20.78
2022-09-03T07:00:41.563Z,20.54
2022-09-03T07:01:44.682Z,20.56
2022-09-03T07:02:44.763Z,20.59
2022-09-03T07:03:41.506Z,20.74
2022-09-03T07:04:41.518Z,20.60
2022-09-03T07:05:41.529Z,20.61
2022-09-03T07:06:41.528Z,20.69
2022-09-03T07:07:41.546Z,20.82
2022-09-03T07:08:41.530Z,20.95
2022-09-03T07:09:44.042Z,21.08
2022-09-03T07:10:41.536Z,21.22
2022-09-03T07:11:41.525Z,21.35
2022-09-03T07:12:41.545Z,21.45
2022-09-03T07:13:41.540Z,21.54
2022-09-03T07:14:41.560Z,21.61
2022-09-03T07:15:41.553Z,21.66
2022-09-03T07:16:41.590Z,21.70
2022-09-03T07:17:41.554Z,21.72
2022-09-03T07:20:41.569Z,21.70
2022-09-03T07:21:45.264Z,21.72
2022-09-03T07:22:41.543Z,21.75
2022-09-03T07:23:41.558Z,21.58
2022-09-03T07:24:41.574Z,21.61
2022-09-03T07:25:41.585Z,21.74
2022-09-03T07:26:41.589Z,21.87
2022-09-03T07:27:41.584Z,22.05
2022-09-03T07:28:41.581Z,22.30
2022-09-03T07:29:41.577Z,22.52
2022-09-03T07:30:44.644Z,22.79
2022-09-03T07:31:41.632Z,23.08
2022-09-03T07:32:41.581Z,23.37
2022-09-03T07:33:41.575Z,23.63
2022-09-03T07:34:41.599Z,23.88
2022-09-03T07:35:41.626Z,24.14
2022-09-03T07:36:41.602Z,24.40
2022-09-03T07:37:41.616Z,24.66
2022-09-03T07:38:41.614Z,24.91
2022-09-03T07:39:41.673Z,25.15
2022-09-03T07:40:41.619Z,25.36
2022-09-03T07:41:41.627Z,25.49
2022-09-03T07:42:41.628Z,25.57
2022-09-03T07:43:41.660Z,25.64
2022-09-03T07:44:41.606Z,25.73
2022-09-03T07:45:41.619Z,25.82
2022-09-03T07:46:41.692Z,25.92
2022-09-03T07:47:41.617Z,25.99
2022-09-03T07:48:41.656Z,26.05
2022-09-03T07:49:41.644Z,26.09
2022-09-03T07:50:41.634Z,26.12
2022-09-03T07:51:41.663Z,26.16
2022-09-03T07:52:41.641Z,26.24
2022-09-03T07:53:41.643Z,26.35
2022-09-03T07:54:41.649Z,26.51
2022-09-03T07:55:41.645Z,26.68
2022-09-03T07:56:41.649Z,26.87
2022-09-03T07:57:41.657Z,26.96
2022-09-03T07:59:41.667Z,27.05
2022-09-03T08:00:41.686Z,27.21
2022-09-03T08:01:41.944Z,27.41
2022-09-03T08:02:45.926Z,27.27
2022-09-03T08:03:41.680Z,27.39
2022-09-03T08:04:41.690Z,27.58
2022-09-03T08:05:41.666Z,27.69
2022-09-03T08:06:41.682Z,27.89
2022-09-03T08:07:44.873Z,28.14
2022-09-03T08:08:41.679Z,28.42
2022-09-03T08:09:41.677Z,28.68
2022-09-03T08:10:41.692Z,28.92
2022-09-03T08:11:41.704Z,29.15
2022-09-03T08:12:41.686Z,29.35
2022-09-03T08:13:41.679Z,29.52
2022-09-03T08:14:41.707Z,29.57
2022-09-03T08:16:41.695Z,29.54
2022-09-03T08:17:41.706Z,29.42
2022-09-03T08:18:41.703Z,29.25
2022-09-03T08:19:41.707Z,29.04
2022-09-03T08:20:41.732Z,28.86
2022-09-03T08:21:41.725Z,28.70
2022-09-03T08:22:41.705Z,28.58
2022-09-03T08:23:41.703Z,28.50
2022-09-03T08:25:41.734Z,28.59
2022-09-03T08:26:41.740Z,28.71
2022-09-03T08:27:41.734Z,28.87
2022-09-03T08:28:41.735Z,29.05
2022-09-03T08:29:41.736Z,29.19
2022-09-03T08:30:41.734Z,29.27
2022-09-03T08:31:41.963Z,29.35
2022-09-03T08:32:41.754Z,29.44
2022-09-03T08:33:41.764Z,29.60
2022-09-03T08:34:41.762Z,29.70
2022-09-03T08:35:41.767Z,29.83
2022-09-03T08:36:41.751Z,29.96
2022-09-03T08:37:41.746Z,30.10
2022-09-03T08:38:41.782Z,30.25
2022-09-03T08:39:41.891Z,30.40
2022-09-03T08:40:41.769Z,30.54
2022-09-03T08:41:41.779Z,30.70
2022-09-03T08:42:41.762Z,30.86
2022-09-03T08:43:41.777Z,30.98
2022-09-03T08:44:45.093Z,31.09
2022-09-03T08:45:41.776Z,31.17
2022-09-03T08:46:41.821Z,31.26
2022-09-03T08:47:41.794Z,31.34
2022-09-03T08:48:41.793Z,31.39
2022-09-03T08:49:41.790Z,31.40
2022-09-03T08:50:41.777Z,31.45
2022-09-03T08:51:41.803Z,31.53
2022-09-03T08:52:41.806Z,31.60
2022-09-03T08:53:41.784Z,31.64
2022-09-03T08:54:41.806Z,31.60
2022-09-03T08:55:41.816Z,31.52
2022-09-03T08:56:41.805Z,31.50
2022-09-03T08:57:41.820Z,31.54
2022-09-03T08:58:41.807Z,31.62
2022-09-03T08:59:41.827Z,31.75
2022-09-03T09:00:41.831Z,31.96
2022-09-03T09:01:42.022Z,32.20
2022-09-03T09:02:42.031Z,32.39
2022-09-03T09:03:41.833Z,32.46
2022-09-03T09:04:41.827Z,32.43
2022-09-03T09:05:41.824Z,32.34
2022-09-03T09:06:41.822Z,32.21
2022-09-03T09:07:41.832Z,32.11
2022-09-03T09:08:41.846Z,32.01
2022-09-03T09:09:41.840Z,31.96
2022-09-03T09:10:41.874Z,31.99
2022-09-03T09:11:41.836Z,31.97
2022-09-03T09:12:45.871Z,31.85
2022-09-03T09:13:41.864Z,31.69
2022-09-03T09:14:41.852Z,31.48
2022-09-03T09:15:41.916Z,31.25
2022-09-03T09:16:41.867Z,30.98
2022-09-03T09:17:41.857Z,30.69
2022-09-03T09:18:41.849Z,30.41
2022-09-03T09:19:41.877Z,30.16
2022-09-03T09:20:41.877Z,29.91
2022-09-03T09:21:45.318Z,29.67
2022-09-03T09:22:41.884Z,29.39
2022-09-03T09:23:41.874Z,29.17
2022-09-03T09:24:41.894Z,28.96
2022-09-03T09:25:41.888Z,28.75
2022-09-03T09:26:41.891Z,28.56
2022-09-03T09:27:41.895Z,28.39
2022-09-03T09:28:41.889Z,28.23
2022-09-03T09:29:41.888Z,28.07
2022-09-03T09:30:41.907Z,27.92
2022-09-03T09:31:42.023Z,27.77
2022-09-03T09:32:41.898Z,27.60
2022-09-03T09:33:41.936Z,27.41
2022-09-03T09:34:41.911Z,27.25
2022-09-03T09:35:41.917Z,27.09
2022-09-03T09:36:41.930Z,26.96
2022-09-03T09:37:41.906Z,26.83
2022-09-03T09:38:41.920Z,26.73
2022-09-03T09:39:41.973Z,26.62
2022-09-03T09:40:45.061Z,26.50
2022-09-03T09:41:41.933Z,26.39
2022-09-03T09:42:41.946Z,26.24
2022-09-03T09:43:41.934Z,26.07
2022-09-03T09:44:41.952Z,25.95
2022-09-03T09:45:41.956Z,25.81
2022-09-03T09:46:41.996Z,25.63
2022-09-03T09:47:41.997Z,25.46
2022-09-03T09:48:42.529Z,25.28
2022-09-03T09:49:41.940Z,25.15
2022-09-03T09:50:42.000Z,25.03
2022-09-03T09:51:41.956Z,24.94
2022-09-03T09:52:41.973Z,24.84
2022-09-03T09:53:41.957Z,24.79
2022-09-03T09:54:41.964Z,24.75
2022-09-03T09:55:41.972Z,24.62
2022-09-03T09:56:41.988Z,24.50
2022-09-03T09:57:41.980Z,24.39
2022-09-03T09:58:45.546Z,24.29
2022-09-03T09:59:41.999Z,24.25
2022-09-03T10:00:41.983Z,24.18
2022-09-03T10:01:42.066Z,24.15
2022-09-03T10:02:42.033Z,24.14
2022-09-03T10:03:41.972Z,24.10
2022-09-03T10:04:41.989Z,24.04
2022-09-03T10:05:41.983Z,23.98
2022-09-03T10:06:41.990Z,23.84
2022-09-03T10:07:42.010Z,23.79
2022-09-03T10:08:42.032Z,23.74
2022-09-03T10:09:42.004Z,23.66
2022-09-03T10:10:42.014Z,23.45
2022-09-03T10:11:42.005Z,23.39
2022-09-03T10:12:42.004Z,23.36
2022-09-03T10:13:42.017Z,23.34
2022-09-03T10:14:42.022Z,23.29
2022-09-03T10:15:42.162Z,23.26
2022-09-03T10:16:42.029Z,23.25
2022-09-03T10:17:42.036Z,23.24
2022-09-03T10:18:42.025Z,23.21
2022-09-03T10:19:42.054Z,23.19
2022-09-03T10:20:42.038Z,23.21
2022-09-03T10:21:42.041Z,23.25
2022-09-03T10:22:56.573Z,23.29
2022-09-03T10:23:42.040Z,23.32
2022-09-03T10:24:42.054Z,23.35
2022-09-03T10:25:42.091Z,23.37
2022-09-03T10:26:42.042Z,23.35
2022-09-03T10:27:42.049Z,23.34
2022-09-03T10:28:42.056Z,23.37
2022-09-03T10:30:42.093Z,23.38
2022-09-03T10:31:42.046Z,23.42
2022-09-03T10:32:46.275Z,23.46
2022-09-03T10:33:42.062Z,23.51
2022-09-03T10:34:42.078Z,23.56
2022-09-03T10:35:45.676Z,23.61
2022-09-03T10:36:42.072Z,23.65
2022-09-03T10:37:42.067Z,23.67
2022-09-03T10:38:42.082Z,23.68
2022-09-03T10:39:43.056Z,23.69
2022-09-03T10:40:42.089Z,23.67
2022-09-03T10:41:42.093Z,23.65
2022-09-03T10:42:42.085Z,23.55
2022-09-03T10:43:42.081Z,23.47
2022-09-03T10:44:42.099Z,23.44
2022-09-03T10:45:42.188Z,23.43
2022-09-03T10:46:42.181Z,23.39
2022-09-03T10:47:42.091Z,23.33
2022-09-03T10:48:42.103Z,23.28
2022-09-03T10:49:42.117Z,23.25
2022-09-03T10:50:42.121Z,23.24
2022-09-03T10:51:46.225Z,23.22
2022-09-03T10:52:42.158Z,23.19
2022-09-03T10:53:42.112Z,23.15
2022-09-03T10:54:42.147Z,23.13
2022-09-03T10:55:42.115Z,23.10
2022-09-03T10:56:42.115Z,23.07
2022-09-03T10:57:42.124Z,23.01
2022-09-03T10:58:42.162Z,22.97
2022-09-03T10:59:42.171Z,22.93
2022-09-03T11:00:42.145Z,22.89
2022-09-03T11:01:42.204Z,22.85
2022-09-03T11:02:42.171Z,22.79
2022-09-03T11:03:42.157Z,22.67
2022-09-03T11:04:42.175Z,22.61
2022-09-03T11:05:42.150Z,22.57
2022-09-03T11:06:42.170Z,22.56
2022-09-03T11:07:42.165Z,22.57
2022-09-03T11:08:42.153Z,22.60
2022-09-03T11:09:42.164Z,22.64
2022-09-03T11:10:42.188Z,22.68
2022-09-03T11:11:42.158Z,22.72
2022-09-03T11:12:45.871Z,22.76
2022-09-03T11:13:42.168Z,22.82
2022-09-03T11:14:42.163Z,22.89
2022-09-03T11:15:42.223Z,22.96
2022-09-03T11:16:42.175Z,22.99
2022-09-03T11:17:42.193Z,22.92
2022-09-03T11:18:42.173Z,22.96
2022-09-03T11:19:42.215Z,23.01
2022-09-03T11:20:42.181Z,23.05
2022-09-03T11:21:42.176Z,23.06
2022-09-03T11:22:42.203Z,23.05
2022-09-03T11:23:42.196Z,23.03
2022-09-03T11:24:42.219Z,23.01
2022-09-03T11:25:42.247Z,23.03
2022-09-03T11:26:42.204Z,23.06
2022-09-03T11:27:42.241Z,23.08
2022-09-03T11:28:42.220Z,23.12
2022-09-03T11:29:42.310Z,23.14
2022-09-03T11:30:42.289Z,23.17
2022-09-03T11:31:42.236Z,23.21
2022-09-03T11:32:42.207Z,23.24
2022-09-03T11:33:42.219Z,23.28
2022-09-03T11:34:42.327Z,23.31
2022-09-03T11:35:42.233Z,23.38
2022-09-03T11:36:47.325Z,23.44
2022-09-03T11:37:42.246Z,23.50
2022-09-03T11:38:42.245Z,23.55
2022-09-03T11:39:42.266Z,23.61
2022-09-03T11:40:42.234Z,23.43
2022-09-03T11:41:42.248Z,23.33
2022-09-03T11:42:42.244Z,23.09
2022-09-03T11:43:42.269Z,23.01
2022-09-03T11:44:47.980Z,22.87
2022-09-03T11:45:42.344Z,22.62
2022-09-03T11:46:42.245Z,22.49
2022-09-03T11:47:42.253Z,22.36
2022-09-03T11:48:42.255Z,22.34
2022-09-03T11:49:46.078Z,22.42
2022-09-03T11:50:42.280Z,22.50
2022-09-03T11:51:42.272Z,22.57
2022-09-03T11:52:42.261Z,22.69
2022-09-03T11:53:42.276Z,22.77
2022-09-03T11:54:42.291Z,22.89
2022-09-03T11:55:43.747Z,23.08
2022-09-03T11:56:42.282Z,23.25
2022-09-03T11:57:42.289Z,23.44
2022-09-03T11:58:42.286Z,23.59
2022-09-03T11:59:42.304Z,23.73
2022-09-03T12:00:42.349Z,23.87
2022-09-03T12:01:42.280Z,24.02
2022-09-03T12:02:42.333Z,24.15
2022-09-03T12:03:42.315Z,24.24
2022-09-03T12:04:42.349Z,24.33
2022-09-03T12:05:42.321Z,24.39
2022-09-03T12:06:42.309Z,24.45
2022-09-03T12:07:42.305Z,24.51
2022-09-03T12:08:42.321Z,24.61
2022-09-03T12:09:42.314Z,24.67
2022-09-03T12:10:42.334Z,24.70
2022-09-03T12:11:42.314Z,24.72
2022-09-03T12:13:42.333Z,24.77
2022-09-03T12:14:42.349Z,24.74
2022-09-03T12:15:42.399Z,24.70
2022-09-03T12:16:42.322Z,24.73
2022-09-03T12:17:42.336Z,24.80
2022-09-03T12:18:42.355Z,24.87
2022-09-03T12:19:42.336Z,24.96
2022-09-03T12:20:42.367Z,25.01
2022-09-03T12:21:42.391Z,24.96
2022-09-03T12:22:42.488Z,24.88
2022-09-03T12:23:42.367Z,24.80
2022-09-03T12:24:42.366Z,24.69
2022-09-03T12:25:42.352Z,24.61
2022-09-03T12:26:46.306Z,24.54
2022-09-03T12:27:42.361Z,24.55
2022-09-03T12:28:44.035Z,24.61
2022-09-03T12:29:42.378Z,24.51
2022-09-03T12:30:42.410Z,24.46
2022-09-03T12:31:43.166Z,24.51
2022-09-03T12:32:42.403Z,24.60
2022-09-03T12:33:42.399Z,24.69
2022-09-03T12:34:42.386Z,24.68
2022-09-03T12:35:58.527Z,24.52
2022-09-03T12:36:42.386Z,24.36
2022-09-03T12:38:08.142Z,24.27
2022-09-03T12:39:09.859Z,24.15
2022-09-03T12:40:07.725Z,24.17
2022-09-03T12:41:26.885Z,24.11
2022-09-03T12:41:42.440Z,23.89
2022-09-03T12:42:42.399Z,23.72
2022-09-03T12:43:45.090Z,23.47
2022-09-03T12:44:42.405Z,23.50
2022-09-03T12:46:10.439Z,23.62
2022-09-03T12:46:42.440Z,23.71
2022-09-03T12:47:42.441Z,23.83
2022-09-03T12:48:43.984Z,23.93
2022-09-03T12:49:42.754Z,24.03
2022-09-03T12:51:53.596Z,24.10
2022-09-03T12:52:42.438Z,24.14
2022-09-03T12:53:42.433Z,24.20
2022-09-03T12:54:42.465Z,24.08
2022-09-03T12:55:42.450Z,24.02
2022-09-03T12:57:42.453Z,24.09
2022-09-03T12:58:42.456Z,24.12
2022-09-03T12:59:42.435Z,24.16
2022-09-03T13:00:42.442Z,24.23
2022-09-03T13:01:42.531Z,24.31
2022-09-03T13:02:42.454Z,24.38
2022-09-03T13:03:46.688Z,24.42
2022-09-03T13:04:42.459Z,24.45
2022-09-03T13:05:42.457Z,24.48
2022-09-03T13:06:42.460Z,24.46
2022-09-03T13:07:44.932Z,24.47
2022-09-03T13:08:42.465Z,24.49
2022-09-03T13:09:42.489Z,24.48
2022-09-03T13:10:42.470Z,24.50
2022-09-03T13:11:42.484Z,24.53
2022-09-03T13:12:42.483Z,24.60
2022-09-03T13:13:42.476Z,24.67
2022-09-03T13:14:42.519Z,24.73
2022-09-03T13:15:42.494Z,24.78
2022-09-03T13:16:42.552Z,24.84
2022-09-03T13:17:42.510Z,24.88
2022-09-03T13:18:42.496Z,24.94
2022-09-03T13:19:42.500Z,24.79
2022-09-03T13:20:42.492Z,24.67
2022-09-03T13:21:42.513Z,24.58
2022-09-03T13:22:42.495Z,24.41
2022-09-03T13:23:42.497Z,24.36
2022-09-03T13:24:42.515Z,24.40
2022-09-03T13:25:42.506Z,24.42
2022-09-03T13:26:42.506Z,24.33
2022-09-03T13:27:42.514Z,24.10
2022-09-03T13:28:42.511Z,23.82
2022-09-03T13:29:42.548Z,23.76
2022-09-03T13:30:42.580Z,23.71
2022-09-03T13:31:42.515Z,23.82
2022-09-03T13:32:42.526Z,23.95
2022-09-03T13:33:42.596Z,23.98
2022-09-03T13:34:42.550Z,24.06
2022-09-03T13:35:42.545Z,24.14
2022-09-03T13:36:42.552Z,24.27
2022-09-03T13:37:42.554Z,24.42
2022-09-03T13:38:42.542Z,24.47
2022-09-03T13:39:42.663Z,24.55